Time;durP1;ratioP1;P1;durP2;ratioP2;P2;SDS_P1;SDS_P2;PMS_P1;PMS_P2;Temp;Humidity;BMP_temperature;BMP_pressure;BME280_temperature;BME280_humidity;BME280_pressure;Samples;Min_cycle;Max_cycle;Signal;HPM_P1;HPM_P2
2022/07/22 00:02:00;;;;;;;14.27;1.80;;;;;;;;;;5074072;28;20048;-62
2022/07/22 00:04:27;;;;;;;13.15;1.92;;;;;;;;;;5058531;28;20052;-61
2022/07/22 00:06:54;;;;;;;12.55;2.53;;;;;;;;;;5055928;28;20056;-61
2022/07/22 00:09:21;;;;;;;10.10;1.83;;;;;;;;;;5080147;28;20051;-61
2022/07/22 00:11:48;;;;;;;13.80;1.83;;;;;;;;;;5075471;28;20125;-61
2022/07/22 00:14:16;;;;;;;7.70;2.15;;;;;;;;;;5057952;28;20059;-62
2022/07/22 00:16:43;;;;;;;9.32;1.73;;;;;;;;;;5072665;28;20048;-61
2022/07/22 00:19:11;;;;;;;14.32;1.90;;;;;;;;;;5060437;28;20051;-62
2022/07/22 00:21:39;;;;;;;11.98;2.13;;;;;;;;;;5077440;28;20048;-61
2022/07/22 00:24:06;;;;;;;13.23;1.92;;;;;;;;;;5080058;28;20105;-62
2022/07/22 00:26:33;;;;;;;13.40;2.50;;;;;;;;;;5076035;28;20486;-61
2022/07/22 00:29:00;;;;;;;9.25;2.10;;;;;;;;;;5079950;28;20052;-61
2022/07/22 00:31:28;;;;;;;13.50;2.20;;;;;;;;;;5078704;28;20081;-61
2022/07/22 00:33:55;;;;;;;12.48;2.20;;;;;;;;;;5078588;28;20052;-61
2022/07/22 00:36:24;;;;;;;9.55;1.90;;;;;;;;;;5077456;28;20154;-62
2022/07/22 00:38:51;;;;;;;10.90;1.98;;;;;;;;;;5077473;28;20041;-61
2022/07/22 00:41:18;;;;;;;8.57;2.20;;;;;;;;;;5061640;28;20055;-61
2022/07/22 00:43:53;;;;;;;8.73;1.48;;;;;;;;;;5080886;28;20047;-62
2022/07/22 00:46:20;;;;;;;6.90;1.70;;;;;;;;;;5077270;28;20052;-62
2022/07/22 00:48:47;;;;;;;12.38;2.08;;;;;;;;;;5077643;28;20067;-62
2022/07/22 00:51:14;;;;;;;8.00;1.88;;;;;;;;;;5080626;28;20419;-61
2022/07/22 00:53:43;;;;;;;9.25;1.80;;;;;;;;;;5078790;28;20081;-62
2022/07/22 00:56:11;;;;;;;6.22;1.80;;;;;;;;;;5075469;28;20143;-61
2022/07/22 00:58:38;;;;;;;9.88;1.70;;;;;;;;;;5075801;28;20048;-61
2022/07/22 01:01:06;;;;;;;10.40;2.10;;;;;;;;;;5081343;28;20048;-62
2022/07/22 01:03:33;;;;;;;9.07;1.67;;;;;;;;;;5080649;28;20040;-61
2022/07/22 01:06:00;;;;;;;11.27;1.80;;;;;;;;;;5075968;28;20439;-62
2022/07/22 01:08:28;;;;;;;8.50;1.95;;;;;;;;;;5083370;28;20407;-62
2022/07/22 01:11:07;;;;;;;6.97;1.80;;;;;;;;;;5077399;28;20043;-62
2022/07/22 01:13:34;;;;;;;5.95;1.65;;;;;;;;;;5076897;28;20048;-61
2022/07/22 01:16:01;;;;;;;9.50;1.70;;;;;;;;;;5076269;28;20461;-62
2022/07/22 01:18:28;;;;;;;9.63;2.10;;;;;;;;;;5074832;28;20059;-62
2022/07/22 01:20:57;;;;;;;5.40;1.65;;;;;;;;;;5080215;28;20193;-62
2022/07/22 01:23:24;;;;;;;5.75;1.50;;;;;;;;;;5073639;28;20052;-62
2022/07/22 01:25:52;;;;;;;8.48;1.65;;;;;;;;;;5074580;28;20055;-61
2022/07/22 01:28:19;;;;;;;9.23;1.70;;;;;;;;;;5077597;28;20109;-62
2022/07/22 01:30:46;;;;;;;10.48;1.48;;;;;;;;;;5073316;28;20060;-61
2022/07/22 01:33:13;;;;;;;9.20;1.70;;;;;;;;;;5074981;28;20052;-62
2022/07/22 01:35:41;;;;;;;7.93;1.73;;;;;;;;;;5059959;28;20090;-62
2022/07/22 01:38:09;;;;;;;10.27;1.80;;;;;;;;;;5079708;28;20059;-62
2022/07/22 01:40:36;;;;;;;5.45;1.50;;;;;;;;;;5056950;28;20052;-62
2022/07/22 01:43:04;;;;;;;8.70;1.70;;;;;;;;;;5076104;28;20055;-62
2022/07/22 01:45:31;;;;;;;6.55;1.20;;;;;;;;;;5083443;28;20052;-62
2022/07/22 03:50:02;;;;;;;12.15;2.53;;;;;;;;;;5063001;27;20721;-61
2022/07/22 03:52:30;;;;;;;9.32;1.60;;;;;;;;;;5057959;28;20076;-62
2022/07/22 03:54:57;;;;;;;8.35;1.42;;;;;;;;;;5052637;28;20057;-62
2022/07/22 03:57:24;;;;;;;7.95;1.88;;;;;;;;;;5057458;28;20045;-62
2022/07/22 03:59:51;;;;;;;12.05;1.67;;;;;;;;;;5056319;28;20919;-61
2022/07/22 04:02:19;;;;;;;7.07;1.52;;;;;;;;;;5054113;28;20053;-62
2022/07/22 04:04:46;;;;;;;9.05;1.38;;;;;;;;;;5053169;28;20057;-62
2022/07/22 04:07:15;;;;;;;15.00;1.80;;;;;;;;;;5050577;28;20091;-62
2022/07/22 04:09:42;;;;;;;7.18;1.50;;;;;;;;;;5037380;28;20053;-62
2022/07/22 04:12:09;;;;;;;8.63;1.55;;;;;;;;;;5054444;28;20049;-62
2022/07/22 04:14:37;;;;;;;10.88;1.60;;;;;;;;;;5043782;28;20052;-62
2022/07/22 04:17:04;;;;;;;10.20;1.92;;;;;;;;;;5050274;28;20044;-62
2022/07/22 04:19:31;;;;;;;10.63;1.65;;;;;;;;;;5031085;28;20053;-62
2022/07/22 04:21:58;;;;;;;8.98;1.70;;;;;;;;;;5031688;28;20059;-62
2022/07/22 04:24:27;;;;;;;6.78;1.50;;;;;;;;;;5045340;28;20049;-62
2022/07/22 04:26:54;;;;;;;8.48;1.50;;;;;;;;;;5028422;28;20120;-62
2022/07/22 04:29:21;;;;;;;10.45;1.80;;;;;;;;;;5029480;28;20377;-62
2022/07/22 04:31:48;;;;;;;10.38;1.85;;;;;;;;;;5030536;28;20058;-62
2022/07/22 04:34:16;;;;;;;5.78;1.63;;;;;;;;;;5028917;28;20485;-62
2022/07/22 04:36:43;;;;;;;7.25;2.05;;;;;;;;;;5030008;28;20515;-62
2022/07/22 04:39:10;;;;;;;6.30;1.25;;;;;;;;;;5031000;28;20149;-62
2022/07/22 04:41:39;;;;;;;6.50;1.27;;;;;;;;;;5032806;28;20742;-62
2022/07/22 04:44:06;;;;;;;5.97;1.45;;;;;;;;;;5016741;28;20450;-62
2022/07/22 04:46:33;;;;;;;7.97;1.88;;;;;;;;;;5028017;28;20049;-62
2022/07/22 04:49:00;;;;;;;8.82;1.90;;;;;;;;;;5035922;28;21310;-62
2022/07/22 04:51:27;;;;;;;11.38;1.70;;;;;;;;;;5028848;28;20053;-61
2022/07/22 04:53:56;;;;;;;6.15;1.45;;;;;;;;;;5035613;28;20053;-62
2022/07/22 04:56:23;;;;;;;7.95;1.50;;;;;;;;;;5033220;28;20072;-62
2022/07/22 04:58:52;;;;;;;9.13;1.58;;;;;;;;;;5029535;28;20057;-62
2022/07/22 05:01:19;;;;;;;9.77;1.70;;;;;;;;;;5019500;28;20576;-62
2022/07/22 05:03:46;;;;;;;9.85;1.70;;;;;;;;;;5017048;28;20057;-62
2022/07/22 05:06:14;;;;;;;11.00;2.13;;;;;;;;;;5020637;28;20049;-62
2022/07/22 05:08:41;;;;;;;5.50;1.55;;;;;;;;;;5022627;28;20053;-62
2022/07/22 05:11:08;;;;;;;10.00;1.90;;;;;;;;;;5007124;28;20061;-62
2022/07/22 05:13:35;;;;;;;5.90;1.70;;;;;;;;;;5018871;28;20049;-62
2022/07/22 05:16:05;;;;;;;7.70;1.55;;;;;;;;;;5023840;28;20061;-62
2022/07/22 05:18:32;;;;;;;8.35;1.90;;;;;;;;;;5018668;28;20056;-62
2022/07/22 05:21:00;;;;;;;5.95;1.88;;;;;;;;;;5022541;28;20110;-62
2022/07/22 05:23:27;;;;;;;11.77;1.70;;;;;;;;;;5022761;28;20060;-62
2022/07/22 05:25:54;;;;;;;12.48;1.65;;;;;;;;;;5022428;28;20053;-62
2022/07/22 05:28:21;;;;;;;5.15;1.30;;;;;;;;;;5019730;28;20049;-62
2022/07/22 05:30:48;;;;;;;11.38;1.90;;;;;;;;;;5024157;28;20479;-62
2022/07/22 05:33:17;;;;;;;9.82;1.80;;;;;;;;;;5003919;28;20061;-62
2022/07/22 05:35:44;;;;;;;10.68;2.03;;;;;;;;;;5017636;28;20053;-62
2022/07/22 05:38:11;;;;;;;8.55;1.75;;;;;;;;;;5017300;28;20068;-62
2022/07/22 05:40:39;;;;;;;12.52;1.90;;;;;;;;;;5018955;28;20115;-62
2022/07/22 05:43:06;;;;;;;5.72;1.73;;;;;;;;;;5012348;28;20049;-62
2022/07/22 05:45:33;;;;;;;9.73;1.63;;;;;;;;;;5018601;28;20814;-62
2022/07/22 05:48:01;;;;;;;6.60;1.73;;;;;;;;;;5020810;28;20053;-62
2022/07/22 05:50:29;;;;;;;5.70;1.70;;;;;;;;;;5004363;28;20478;-62
2022/07/22 05:52:57;;;;;;;7.32;1.63;;;;;;;;;;5008319;28;20058;-62
2022/07/22 05:55:24;;;;;;;15.70;1.85;;;;;;;;;;5021347;28;20427;-62
2022/07/22 05:57:51;;;;;;;6.32;1.95;;;;;;;;;;5021696;28;20049;-62
2022/07/22 06:00:19;;;;;;;7.70;1.65;;;;;;;;;;5013099;28;20054;-62
2022/07/22 06:02:46;;;;;;;11.40;1.90;;;;;;;;;;5007358;28;20046;-62
2022/07/22 06:05:13;;;;;;;10.85;1.85;;;;;;;;;;5018748;28;20056;-62
2022/07/22 06:07:42;;;;;;;10.93;1.60;;;;;;;;;;4998767;28;20049;-62
2022/07/22 06:10:09;;;;;;;8.73;1.90;;;;;;;;;;5013313;28;20136;-62
2022/07/22 06:12:36;;;;;;;13.75;1.67;;;;;;;;;;5012927;28;20046;-62
2022/07/22 06:15:04;;;;;;;5.32;1.63;;;;;;;;;;5011963;28;20085;-62
2022/07/22 06:17:31;;;;;;;10.50;1.55;;;;;;;;;;5018572;28;20076;-62
2022/07/22 06:19:58;;;;;;;8.60;1.17;;;;;;;;;;5015430;28;20046;-63
2022/07/22 06:22:26;;;;;;;8.43;1.55;;;;;;;;;;5018429;28;20053;-62
2022/07/22 06:24:54;;;;;;;9.88;1.67;;;;;;;;;;5014798;28;20103;-62
2022/07/22 06:27:21;;;;;;;6.35;1.20;;;;;;;;;;5019488;28;20045;-62
2022/07/22 06:29:48;;;;;;;6.30;1.42;;;;;;;;;;5013880;28;20673;-62
2022/07/22 06:32:16;;;;;;;8.30;1.58;;;;;;;;;;5000386;28;20049;-62
2022/07/22 06:34:43;;;;;;;7.50;1.70;;;;;;;;;;5011892;28;20045;-62
2022/07/22 06:37:10;;;;;;;10.02;1.95;;;;;;;;;;5018615;28;20489;-62
2022/07/22 06:39:37;;;;;;;8.27;1.20;;;;;;;;;;5001878;28;20957;-62
2022/07/22 06:42:06;;;;;;;11.90;1.60;;;;;;;;;;5019168;28;20054;-62
2022/07/22 06:44:33;;;;;;;7.22;1.40;;;;;;;;;;5013787;28;20115;-62
2022/07/22 06:47:00;;;;;;;8.23;1.20;;;;;;;;;;5015371;28;20432;-62
2022/07/22 06:49:28;;;;;;;7.93;1.50;;;;;;;;;;5016125;28;20054;-62
2022/07/22 06:51:55;;;;;;;5.78;1.42;;;;;;;;;;4995245;28;20810;-62
2022/07/22 06:54:22;;;;;;;9.10;1.70;;;;;;;;;;5015995;28;20060;-62
2022/07/22 06:56:49;;;;;;;8.05;1.40;;;;;;;;;;5016625;28;20519;-62
2022/07/22 06:59:19;;;;;;;4.63;1.23;;;;;;;;;;5018535;28;20043;-62
2022/07/22 07:01:46;;;;;;;6.07;1.10;;;;;;;;;;4999061;28;20049;-62
2022/07/22 07:04:13;;;;;;;5.72;1.35;;;;;;;;;;5000669;28;20058;-62
2022/07/22 07:06:41;;;;;;;3.92;1.40;;;;;;;;;;5013316;28;20050;-62
2022/07/22 07:09:08;;;;;;;7.30;1.55;;;;;;;;;;5018375;28;20046;-62
2022/07/22 07:11:35;;;;;;;3.58;0.93;;;;;;;;;;5017429;28;20041;-62
2022/07/22 07:14:03;;;;;;;8.80;1.30;;;;;;;;;;5014943;28;20061;-62
2022/07/22 07:16:31;;;;;;;6.75;1.90;;;;;;;;;;5014387;28;20054;-62
2022/07/22 07:18:59;;;;;;;5.63;1.05;;;;;;;;;;4994233;28;20071;-62
2022/07/22 07:21:26;;;;;;;6.15;0.90;;;;;;;;;;5010943;28;20057;-62
2022/07/22 07:23:53;;;;;;;5.68;1.08;;;;;;;;;;5021760;28;20846;-62
2022/07/22 07:26:21;;;;;;;3.20;0.73;;;;;;;;;;5021727;28;20527;-62
2022/07/22 07:28:48;;;;;;;5.78;0.75;;;;;;;;;;5022122;28;20060;-62
2022/07/22 07:31:15;;;;;;;3.75;0.70;;;;;;;;;;5012922;28;20520;-62
2022/07/22 07:33:44;;;;;;;3.22;0.73;;;;;;;;;;5019720;28;20056;-62
2022/07/22 07:36:11;;;;;;;3.67;0.70;;;;;;;;;;5014395;28;20452;-62
2022/07/22 07:38:38;;;;;;;4.32;0.70;;;;;;;;;;5015037;28;20053;-62
2022/07/22 07:41:06;;;;;;;2.83;0.60;;;;;;;;;;5013839;28;20072;-63
2022/07/22 07:43:34;;;;;;;2.53;0.70;;;;;;;;;;5013086;28;20045;-62
2022/07/22 07:46:01;;;;;;;4.07;0.60;;;;;;;;;;5007966;28;20524;-62
2022/07/22 07:48:28;;;;;;;4.07;0.68;;;;;;;;;;5017093;28;20061;-62
2022/07/22 07:50:57;;;;;;;3.85;0.70;;;;;;;;;;5018305;28;20050;-62
2022/07/22 07:53:24;;;;;;;4.70;1.00;;;;;;;;;;5013006;28;20053;-62
2022/07/22 07:55:52;;;;;;;6.80;0.93;;;;;;;;;;5018567;28;20110;-62
2022/07/22 07:58:19;;;;;;;3.13;0.93;;;;;;;;;;5015294;28;20045;-62
2022/07/22 08:00:47;;;;;;;3.95;0.82;;;;;;;;;;5013808;28;20046;-62
2022/07/22 08:03:14;;;;;;;4.57;0.90;;;;;;;;;;5011891;28;20050;-62
2022/07/22 08:05:41;;;;;;;2.40;0.70;;;;;;;;;;4997942;28;20049;-62
2022/07/22 08:08:10;;;;;;;3.03;0.93;;;;;;;;;;5013150;28;20773;-62
2022/07/22 08:10:37;;;;;;;3.42;0.80;;;;;;;;;;5011425;28;20046;-62
2022/07/22 08:13:05;;;;;;;3.70;0.77;;;;;;;;;;5013089;28;20056;-62
2022/07/22 08:15:33;;;;;;;4.72;0.75;;;;;;;;;;5015632;28;20045;-62
2022/07/22 08:18:01;;;;;;;3.28;0.95;;;;;;;;;;5019263;28;20072;-62
2022/07/22 08:20:28;;;;;;;3.78;0.73;;;;;;;;;;5017421;28;20060;-63
2022/07/22 08:22:55;;;;;;;5.53;0.88;;;;;;;;;;5011235;28;20153;-62
2022/07/22 08:25:24;;;;;;;5.90;1.27;;;;;;;;;;5018967;28;20049;-62
2022/07/22 08:27:51;;;;;;;5.93;0.80;;;;;;;;;;5019578;28;20424;-62
2022/07/22 08:30:19;;;;;;;5.97;0.95;;;;;;;;;;5019681;28;20373;-62
2022/07/22 08:32:47;;;;;;;3.00;0.70;;;;;;;;;;5002760;28;20068;-62
2022/07/22 08:35:14;;;;;;;2.55;0.60;;;;;;;;;;5014721;28;20644;-62
2022/07/22 08:37:42;;;;;;;7.88;1.20;;;;;;;;;;5020778;28;20064;-62
2022/07/22 08:40:10;;;;;;;2.10;0.80;;;;;;;;;;5021606;28;20111;-62
2022/07/22 08:42:39;;;;;;;3.72;0.57;;;;;;;;;;5006007;28;20164;-62
2022/07/22 08:45:07;;;;;;;5.45;0.85;;;;;;;;;;5021808;28;20654;-62
2022/07/22 08:47:34;;;;;;;3.35;0.57;;;;;;;;;;5024225;28;20056;-62
2022/07/22 08:50:02;;;;;;;3.38;0.60;;;;;;;;;;5016343;28;20045;-62
2022/07/22 08:52:29;;;;;;;0.82;0.40;;;;;;;;;;5022283;28;20056;-62
2022/07/22 08:54:56;;;;;;;1.17;0.50;;;;;;;;;;5020469;28;20053;-63
2022/07/22 08:57:23;;;;;;;2.13;0.50;;;;;;;;;;5019304;28;20057;-62
2022/07/22 08:59:53;;;;;;;1.95;0.75;;;;;;;;;;5008700;28;20042;-63
2022/07/22 09:02:21;;;;;;;2.45;0.80;;;;;;;;;;5024535;28;20412;-63
2022/07/22 09:04:56;;;;;;;1.02;0.40;;;;;;;;;;5016973;28;20057;-62
2022/07/22 09:07:27;;;;;;;2.97;0.55;;;;;;;;;;5016800;28;20541;-62
2022/07/22 09:09:55;;;;;;;2.88;0.70;;;;;;;;;;5024282;28;20112;-63
2022/07/22 09:12:23;;;;;;;5.53;0.70;;;;;;;;;;4995934;28;20053;-62
2022/07/22 09:14:51;;;;;;;2.47;0.60;;;;;;;;;;5023093;28;20785;-62
2022/07/22 09:17:26;;;;;;;2.53;0.60;;;;;;;;;;5012385;28;20137;-63
2022/07/22 09:19:54;;;;;;;3.35;0.70;;;;;;;;;;5017773;28;20057;-63
2022/07/22 09:22:34;;;;;;;2.65;0.50;;;;;;;;;;5018720;28;20497;-63
2022/07/22 09:25:17;;;;;;;3.75;0.82;;;;;;;;;;5021109;28;20053;-63
2022/07/22 09:27:45;;;;;;;2.33;0.70;;;;;;;;;;5017529;28;20057;-62
2022/07/22 09:30:13;;;;;;;4.47;0.60;;;;;;;;;;5013530;28;20068;-63
2022/07/22 09:32:42;;;;;;;4.57;0.60;;;;;;;;;;5013067;28;20053;-62
2022/07/22 09:35:10;;;;;;;2.40;0.50;;;;;;;;;;5015386;28;20548;-63
2022/07/22 09:37:37;;;;;;;2.53;0.77;;;;;;;;;;5021541;28;20737;-62
2022/07/22 09:40:14;;;;;;;3.38;0.70;;;;;;;;;;5014036;28;20054;-63
2022/07/22 09:42:45;;;;;;;2.30;0.73;;;;;;;;;;5017602;28;20108;-62
2022/07/22 09:45:12;;;;;;;3.50;0.63;;;;;;;;;;5024026;28;20696;-62
2022/07/22 09:47:43;;;;;;;3.17;0.60;;;;;;;;;;5017633;28;20067;-62
2022/07/22 09:50:21;;;;;;;3.30;0.80;;;;;;;;;;5001981;28;20552;-63
2022/07/22 09:52:49;;;;;;;2.92;0.80;;;;;;;;;;5018166;28;20053;-63
2022/07/22 09:55:17;;;;;;;3.10;0.63;;;;;;;;;;5020054;28;20061;-63
2022/07/22 09:57:44;;;;;;;4.05;0.68;;;;;;;;;;5020361;28;20045;-62
2022/07/22 10:00:12;;;;;;;2.63;0.60;;;;;;;;;;5011898;28;20053;-62
2022/07/22 10:02:42;;;;;;;1.58;0.60;;;;;;;;;;4997802;28;20050;-62
2022/07/22 10:05:12;;;;;;;2.95;0.80;;;;;;;;;;5019032;28;20049;-63
2022/07/22 10:07:40;;;;;;;3.13;0.57;;;;;;;;;;5014335;28;20048;-63
2022/07/22 10:10:09;;;;;;;3.40;0.95;;;;;;;;;;5021461;28;20374;-63
2022/07/22 10:12:37;;;;;;;1.95;0.50;;;;;;;;;;5021688;28;20069;-63
2022/07/22 10:15:05;;;;;;;1.75;0.57;;;;;;;;;;4996152;28;20057;-63
2022/07/22 10:17:33;;;;;;;2.65;0.70;;;;;;;;;;5012428;28;20046;-63
2022/07/22 10:20:00;;;;;;;4.03;0.82;;;;;;;;;;5015401;28;20049;-63
2022/07/22 10:22:49;;;;;;;3.00;0.80;;;;;;;;;;4992052;28;20420;-63
2022/07/22 10:25:18;;;;;;;7.10;1.25;;;;;;;;;;5020785;28;20069;-63
2022/07/22 10:27:46;;;;;;;7.97;0.80;;;;;;;;;;4993069;28;20058;-63
2022/07/22 10:30:14;;;;;;;5.07;1.02;;;;;;;;;;5015936;28;20099;-63
2022/07/22 10:32:41;;;;;;;3.45;0.70;;;;;;;;;;4999184;28;20045;-63
2022/07/22 10:35:22;;;;;;;2.75;0.93;;;;;;;;;;5016451;28;20052;-63
2022/07/22 10:37:53;;;;;;;5.57;0.80;;;;;;;;;;5016757;28;20053;-63
2022/07/22 10:40:20;;;;;;;2.42;0.90;;;;;;;;;;5022215;28;20129;-63
2022/07/22 10:43:07;;;;;;;2.63;0.70;;;;;;;;;;5011191;28;20505;-63
2022/07/22 10:45:35;;;;;;;3.55;0.88;;;;;;;;;;5013295;28;20041;-63
2022/07/22 10:48:05;;;;;;;3.38;0.93;;;;;;;;;;5000108;28;20058;-63
2022/07/22 10:50:45;;;;;;;2.88;0.70;;;;;;;;;;5019920;28;20124;-63
2022/07/22 10:53:15;;;;;;;4.00;0.80;;;;;;;;;;5021452;28;20049;-63
2022/07/22 10:55:57;;;;;;;4.15;0.70;;;;;;;;;;5014326;28;20060;-63
2022/07/22 10:58:43;;;;;;;5.20;0.95;;;;;;;;;;5017418;28;20041;-63
2022/07/22 11:01:11;;;;;;;2.30;0.95;;;;;;;;;;5015790;28;20421;-63
2022/07/22 11:03:41;;;;;;;3.72;0.82;;;;;;;;;;5020251;28;20042;-63
2022/07/22 11:06:19;;;;;;;2.65;0.75;;;;;;;;;;5016593;28;20045;-63
2022/07/22 11:08:48;;;;;;;3.78;0.80;;;;;;;;;;5015606;28;20460;-63
2022/07/22 11:11:16;;;;;;;3.03;0.80;;;;;;;;;;5012331;28;20053;-63
2022/07/22 11:13:45;;;;;;;4.07;0.95;;;;;;;;;;5017391;28;20081;-63
2022/07/22 11:16:20;;;;;;;4.55;1.08;;;;;;;;;;5017389;28;20088;-63
2022/07/22 11:18:52;;;;;;;4.90;0.95;;;;;;;;;;5009401;28;20504;-63
2022/07/22 11:21:20;;;;;;;6.35;1.13;;;;;;;;;;5012415;28;20110;-63
2022/07/22 11:23:49;;;;;;;3.63;1.10;;;;;;;;;;5021139;28;20048;-63
2022/07/22 11:26:17;;;;;;;3.90;0.80;;;;;;;;;;5013333;28;20053;-63
2022/07/22 11:28:45;;;;;;;4.85;1.00;;;;;;;;;;5020929;28;20064;-63
2022/07/22 11:31:15;;;;;;;4.22;1.10;;;;;;;;;;5020311;28;20047;-63
2022/07/22 11:33:42;;;;;;;6.05;1.20;;;;;;;;;;5017162;28;20125;-63
2022/07/22 11:36:10;;;;;;;8.70;1.20;;;;;;;;;;5011761;28;20504;-63
2022/07/22 11:38:55;;;;;;;4.07;1.10;;;;;;;;;;5015058;28;20107;-63
2022/07/22 11:41:24;;;;;;;12.20;1.33;;;;;;;;;;5016164;28;20105;-63
2022/07/22 11:43:51;;;;;;;5.00;1.25;;;;;;;;;;4994958;28;20094;-63
2022/07/22 11:46:19;;;;;;;6.20;1.10;;;;;;;;;;5015207;28;20068;-63
2022/07/22 11:48:46;;;;;;;2.35;0.80;;;;;;;;;;5014948;28;20686;-63
2022/07/22 11:51:15;;;;;;;5.00;1.23;;;;;;;;;;5016989;28;20045;-63
2022/07/22 11:53:43;;;;;;;5.95;1.20;;;;;;;;;;5000912;28;20041;-63
2022/07/22 11:56:11;;;;;;;5.90;1.10;;;;;;;;;;5021546;28;20049;-63
2022/07/22 11:58:41;;;;;;;3.80;0.85;;;;;;;;;;5000701;28;20056;-63
2022/07/22 12:01:08;;;;;;;5.18;1.23;;;;;;;;;;5020181;28;20064;-63
2022/07/22 12:03:36;;;;;;;5.03;1.00;;;;;;;;;;5014752;28;20046;-63
2022/07/22 12:06:05;;;;;;;3.97;1.00;;;;;;;;;;5011545;28;20046;-63
2022/07/22 12:08:33;;;;;;;4.47;0.80;;;;;;;;;;4989648;28;20053;-63
2022/07/22 12:11:00;;;;;;;6.10;0.93;;;;;;;;;;5022074;28;20088;-63
2022/07/22 12:13:31;;;;;;;7.15;1.13;;;;;;;;;;5021449;28;20068;-63
2022/07/22 12:16:00;;;;;;;2.10;0.73;;;;;;;;;;5023741;28;20054;-63
2022/07/22 12:18:28;;;;;;;1.92;0.90;;;;;;;;;;5023280;28;20454;-63
2022/07/22 12:20:56;;;;;;;3.67;0.90;;;;;;;;;;5025102;28;20053;-63
2022/07/22 12:23:25;;;;;;;2.47;0.90;;;;;;;;;;5004547;28;20111;-63
2022/07/22 12:25:53;;;;;;;3.80;1.08;;;;;;;;;;5020359;28;20061;-63
2022/07/22 12:28:21;;;;;;;3.53;0.80;;;;;;;;;;5018749;28;20045;-63
2022/07/22 12:30:48;;;;;;;2.72;1.00;;;;;;;;;;5022471;28;20057;-63
2022/07/22 12:33:17;;;;;;;1.77;0.70;;;;;;;;;;5015892;28;20057;-63
2022/07/22 12:35:45;;;;;;;4.88;1.05;;;;;;;;;;5017804;28;20045;-63
2022/07/22 12:38:13;;;;;;;4.50;0.90;;;;;;;;;;5015781;28;20053;-63
2022/07/22 12:40:40;;;;;;;6.15;0.98;;;;;;;;;;5020207;28;20088;-63
2022/07/22 12:43:08;;;;;;;7.45;1.00;;;;;;;;;;5017155;28;20056;-63
2022/07/22 12:45:36;;;;;;;3.47;0.95;;;;;;;;;;5017040;28;20518;-63
2022/07/22 12:48:08;;;;;;;6.85;1.23;;;;;;;;;;5004844;28;20063;-63
2022/07/22 12:50:37;;;;;;;6.30;1.10;;;;;;;;;;5005826;28;20061;-63
2022/07/22 12:53:06;;;;;;;4.10;0.90;;;;;;;;;;5021334;28;20049;-63
2022/07/22 12:55:34;;;;;;;5.03;1.00;;;;;;;;;;5013484;28;20700;-63
2022/07/22 12:58:02;;;;;;;3.13;0.90;;;;;;;;;;5022084;28;20045;-63
2022/07/22 13:00:30;;;;;;;6.20;0.80;;;;;;;;;;5020382;28;20591;-63
2022/07/22 13:02:57;;;;;;;7.30;1.17;;;;;;;;;;5018219;28;20053;-63
2022/07/22 13:05:25;;;;;;;7.68;1.10;;;;;;;;;;5019905;28;20068;-64
2022/07/22 13:07:54;;;;;;;6.28;1.00;;;;;;;;;;5017042;28;20049;-63
2022/07/22 13:10:22;;;;;;;4.38;1.10;;;;;;;;;;5020084;28;20563;-63
2022/07/22 13:12:49;;;;;;;9.55;1.10;;;;;;;;;;5020926;28;20077;-61
2022/07/22 13:15:17;;;;;;;5.28;1.10;;;;;;;;;;5005353;28;20057;-63
2022/07/22 13:17:44;;;;;;;4.72;1.20;;;;;;;;;;5020119;28;20053;-62
2022/07/22 13:20:12;;;;;;;3.78;1.48;;;;;;;;;;5018343;28;20053;-63
2022/07/22 13:22:39;;;;;;;4.95;1.50;;;;;;;;;;4997504;28;20041;-67
2022/07/22 13:25:08;;;;;;;5.45;1.38;;;;;;;;;;5021686;28;20057;-63
2022/07/22 13:27:36;;;;;;;3.53;1.00;;;;;;;;;;5022229;28;20049;-63
2022/07/22 13:30:03;;;;;;;4.63;1.33;;;;;;;;;;5021911;28;20056;-63
2022/07/22 13:32:30;;;;;;;6.28;1.92;;;;;;;;;;5001189;28;20061;-63
2022/07/22 13:34:57;;;;;;;6.55;1.10;;;;;;;;;;5021884;28;20103;-63
2022/07/22 13:37:25;;;;;;;8.27;1.40;;;;;;;;;;5020833;28;20574;-63
2022/07/22 13:39:52;;;;;;;5.50;1.30;;;;;;;;;;5017941;28;20464;-63
2022/07/22 13:42:21;;;;;;;9.80;1.42;;;;;;;;;;5021436;28;20104;-63
2022/07/22 13:44:49;;;;;;;4.07;1.33;;;;;;;;;;5017844;28;20061;-63
2022/07/22 13:47:16;;;;;;;2.75;1.25;;;;;;;;;;5023370;28;20082;-63
2022/07/22 13:49:44;;;;;;;5.53;1.50;;;;;;;;;;5017858;28;20441;-63
2022/07/22 13:52:11;;;;;;;3.05;1.02;;;;;;;;;;5017766;28;20801;-63
2022/07/22 13:54:38;;;;;;;5.00;1.60;;;;;;;;;;5018889;28;20076;-63
2022/07/22 13:57:06;;;;;;;4.25;1.60;;;;;;;;;;5019647;28;20045;-63
2022/07/22 13:59:35;;;;;;;5.63;1.73;;;;;;;;;;5023575;28;20073;-63
2022/07/22 14:02:02;;;;;;;7.03;1.58;;;;;;;;;;5020530;28;20056;-63
2022/07/22 14:04:29;;;;;;;4.32;1.48;;;;;;;;;;4993643;28;20042;-63
2022/07/22 14:06:57;;;;;;;5.38;1.00;;;;;;;;;;5019487;28;20064;-64
2022/07/22 14:09:24;;;;;;;3.78;1.00;;;;;;;;;;5001400;28;20389;-64
2022/07/22 14:11:51;;;;;;;5.22;1.00;;;;;;;;;;5016467;28;20053;-63
2022/07/22 14:14:18;;;;;;;6.18;1.20;;;;;;;;;;5009779;28;20050;-63
2022/07/22 14:16:47;;;;;;;3.70;1.10;;;;;;;;;;5009244;28;20053;-63
2022/07/22 14:19:16;;;;;;;7.22;1.23;;;;;;;;;;5013566;28;20456;-64
2022/07/22 14:21:44;;;;;;;3.75;1.48;;;;;;;;;;5013807;28;20045;-63
2022/07/22 14:24:11;;;;;;;3.97;1.00;;;;;;;;;;5014534;28;20125;-64
2022/07/22 14:26:39;;;;;;;5.50;1.17;;;;;;;;;;5019458;28;20115;-63
2022/07/22 14:29:07;;;;;;;8.63;1.35;;;;;;;;;;5021786;28;20468;-63
2022/07/22 14:31:34;;;;;;;2.47;1.10;;;;;;;;;;5012661;28;20042;-63
2022/07/22 14:34:03;;;;;;;4.40;1.20;;;;;;;;;;5019019;28;20057;-63
2022/07/22 14:36:30;;;;;;;4.30;1.15;;;;;;;;;;5013566;28;20053;-63
2022/07/22 14:38:57;;;;;;;4.47;1.10;;;;;;;;;;5017269;28;20073;-63
2022/07/22 14:41:25;;;;;;;6.10;1.10;;;;;;;;;;5019893;28;20037;-63
2022/07/22 14:43:52;;;;;;;5.55;1.10;;;;;;;;;;5019073;28;20053;-63
2022/07/22 14:46:19;;;;;;;6.38;1.55;;;;;;;;;;5016220;28;20068;-63
2022/07/22 14:48:49;;;;;;;3.85;1.40;;;;;;;;;;5021587;28;20058;-63
2022/07/22 14:51:17;;;;;;;8.13;1.90;;;;;;;;;;5017298;28;20066;-63
2022/07/22 14:53:44;;;;;;;6.38;1.30;;;;;;;;;;5019382;28;20053;-63
2022/07/22 14:56:12;;;;;;;9.50;1.48;;;;;;;;;;5021325;28;20060;-63
2022/07/22 14:58:39;;;;;;;8.40;1.50;;;;;;;;;;4993390;28;20136;-63
2022/07/22 15:01:06;;;;;;;5.97;1.05;;;;;;;;;;5015005;28;20489;-63
2022/07/22 15:03:33;;;;;;;5.95;1.10;;;;;;;;;;5015739;28;20053;-63
2022/07/22 15:06:00;;;;;;;3.80;1.10;;;;;;;;;;5015479;28;20056;-63
2022/07/22 15:08:29;;;;;;;4.25;0.98;;;;;;;;;;5000949;28;20053;-63
2022/07/22 15:10:58;;;;;;;2.83;1.25;;;;;;;;;;5012985;28;20045;-63
2022/07/22 15:13:25;;;;;;;5.03;1.27;;;;;;;;;;5015509;28;20382;-63
2022/07/22 15:15:53;;;;;;;2.97;1.30;;;;;;;;;;5008276;28;20056;-63
2022/07/22 15:18:20;;;;;;;2.83;1.10;;;;;;;;;;5015690;28;20049;-63
2022/07/22 15:20:47;;;;;;;2.67;1.30;;;;;;;;;;5019429;28;20857;-63
2022/07/22 15:23:15;;;;;;;6.95;0.95;;;;;;;;;;5016905;28;20061;-63
2022/07/22 15:25:43;;;;;;;3.72;0.80;;;;;;;;;;5002588;28;20053;-63
2022/07/22 15:28:11;;;;;;;4.40;1.00;;;;;;;;;;5018542;28;20116;-63
2022/07/22 15:30:38;;;;;;;6.03;1.38;;;;;;;;;;5019551;28;20504;-64
2022/07/22 15:33:05;;;;;;;6.57;1.08;;;;;;;;;;5018898;28;20045;-63
2022/07/22 15:35:32;;;;;;;5.60;1.23;;;;;;;;;;5001376;28;20053;-63
2022/07/22 15:37:59;;;;;;;3.20;1.17;;;;;;;;;;5017147;28;20045;-63
2022/07/22 15:40:27;;;;;;;3.30;0.88;;;;;;;;;;5019225;28;20046;-63
2022/07/22 15:42:55;;;;;;;4.32;1.20;;;;;;;;;;5015379;28;20061;-63
2022/07/22 15:45:23;;;;;;;4.10;1.00;;;;;;;;;;5013668;28;20045;-63
2022/07/22 15:47:51;;;;;;;2.78;0.77;;;;;;;;;;5018936;28;20111;-63
2022/07/22 15:50:20;;;;;;;6.47;1.05;;;;;;;;;;5013717;28;20057;-63
2022/07/22 15:52:48;;;;;;;6.15;0.90;;;;;;;;;;5017843;28;20562;-63
2022/07/22 15:55:15;;;;;;;5.88;1.08;;;;;;;;;;5014234;28;20045;-63
2022/07/22 16:00:30;;;;;;;7.25;1.33;;;;;;;;;;5017002;28;20060;-63
2022/07/22 16:02:57;;;;;;;3.78;1.00;;;;;;;;;;5021062;28;20057;-64
2022/07/22 16:05:24;;;;;;;3.60;1.23;;;;;;;;;;5017494;28;20082;-63
2022/07/22 16:07:51;;;;;;;4.80;1.10;;;;;;;;;;5014121;28;20469;-63
2022/07/22 16:10:19;;;;;;;4.82;0.95;;;;;;;;;;5000504;28;20054;-63
2022/07/22 16:12:46;;;;;;;5.72;1.00;;;;;;;;;;5011579;28;20495;-64
2022/07/22 16:15:14;;;;;;;3.72;1.05;;;;;;;;;;5018320;28;20060;-63
2022/07/22 16:17:42;;;;;;;7.78;1.15;;;;;;;;;;4992799;28;20128;-63
2022/07/22 16:20:10;;;;;;;3.58;1.15;;;;;;;;;;5007905;28;20073;-63
2022/07/22 16:22:37;;;;;;;5.63;0.80;;;;;;;;;;5017357;28;20049;-63
2022/07/22 16:25:05;;;;;;;2.25;0.95;;;;;;;;;;5011823;28;20138;-63
2022/07/22 16:27:32;;;;;;;7.43;1.50;;;;;;;;;;5011273;28;20575;-63
2022/07/22 16:29:59;;;;;;;4.05;1.70;;;;;;;;;;5014892;28;20045;-63
2022/07/22 16:32:26;;;;;;;4.30;1.70;;;;;;;;;;5008027;28;20485;-63
2022/07/22 16:34:55;;;;;;;2.67;1.40;;;;;;;;;;5000065;28;20662;-63
2022/07/22 16:37:22;;;;;;;4.50;1.70;;;;;;;;;;5011947;28;20057;-63
2022/07/22 16:39:50;;;;;;;4.07;1.60;;;;;;;;;;5012405;28;20042;-63
2022/07/22 16:42:18;;;;;;;3.70;1.20;;;;;;;;;;5016805;28;20084;-63
2022/07/22 16:44:45;;;;;;;4.63;1.60;;;;;;;;;;5014626;28;20374;-63
2022/07/22 16:47:13;;;;;;;9.00;2.08;;;;;;;;;;4997657;28;20065;-63
2022/07/22 16:49:40;;;;;;;5.35;1.58;;;;;;;;;;5013806;28;20572;-64
2022/07/22 16:52:08;;;;;;;3.45;1.30;;;;;;;;;;5010817;28;20046;-63